Time;durP1;ratioP1;P1;durP2;ratioP2;P2;SDS_P1;SDS_P2;PMS_P1;PMS_P2;Temp;Humidity;BMP_temperature;BMP_pressure;BME280_temperature;BME280_humidity;BME280_pressure;Samples;Min_cycle;Max_cycle;Signal;HPM_P1;HPM_P2
2023/02/11 00:01:32;;;;;;;62.60;28.30;;;;;;;4.85;45.42;99425.75;4984032;28;20238;-70
2023/02/11 00:03:58;;;;;;;49.13;25.50;;;;;;;4.95;45.29;99427.06;4989181;28;20177;-70
2023/02/11 00:06:25;;;;;;;46.30;26.33;;;;;;;4.92;45.66;99425.44;4984763;28;20434;-69
2023/02/11 00:08:51;;;;;;;49.13;25.20;;;;;;;4.90;45.34;99424.66;4969649;28;20416;-69
2023/02/11 00:11:18;;;;;;;44.03;25.43;;;;;;;4.81;45.95;99421.56;4990977;28;20437;-70
2023/02/11 00:13:44;;;;;;;50.70;26.13;;;;;;;4.83;46.07;99423.22;5000737;28;20204;-70
2023/02/11 00:16:11;;;;;;;46.13;24.50;;;;;;;4.79;45.99;99419.06;4997733;28;20416;-68
2023/02/11 00:18:37;;;;;;;46.50;26.63;;;;;;;4.76;46.23;99424.38;5002546;28;20442;-70
2023/02/11 00:21:10;;;;;;;44.37;24.47;;;;;;;4.76;45.70;99420.03;5004996;28;20823;-70
2023/02/11 00:23:36;;;;;;;51.80;26.43;;;;;;;4.76;46.41;99424.38;4990980;28;20204;-71
2023/02/11 00:26:01;;;;;;;43.70;25.37;;;;;;;4.82;46.12;99426.72;4990518;28;20426;-70
2023/02/11 00:28:27;;;;;;;43.63;24.50;;;;;;;4.71;46.05;99423.72;5005576;28;20223;-70
2023/02/11 00:30:56;;;;;;;45.10;24.23;;;;;;;4.69;45.86;99415.97;4996054;28;20177;-70
2023/02/11 00:33:22;;;;;;;45.90;25.70;;;;;;;4.60;46.65;99418.94;5007914;28;20287;-70
2023/02/11 00:35:48;;;;;;;45.90;25.10;;;;;;;4.58;46.12;99416.41;5004921;28;20847;-70
2023/02/11 00:38:13;;;;;;;50.10;25.07;;;;;;;4.52;45.86;99410.63;5006466;28;20424;-69
2023/02/11 00:40:39;;;;;;;46.07;24.30;;;;;;;4.55;46.41;99405.28;5000767;28;20200;-70
2023/02/11 00:43:04;;;;;;;39.17;23.50;;;;;;;4.57;46.55;99398.28;5008728;28;20738;-70
2023/02/11 00:45:30;;;;;;;49.23;23.10;;;;;;;4.74;46.04;99402.78;4988373;28;20275;-70
2023/02/11 00:47:55;;;;;;;47.47;24.50;;;;;;;4.82;45.44;99397.28;4985795;28;20903;-70
2023/02/11 00:50:21;;;;;;;49.73;24.93;;;;;;;4.79;45.84;99400.03;5000879;28;20199;-70
2023/02/11 00:52:47;;;;;;;48.73;24.83;;;;;;;4.67;46.01;99399.59;5004801;28;20203;-69
2023/02/11 00:55:12;;;;;;;45.00;24.57;;;;;;;4.57;45.98;99409.53;5006488;28;20181;-69
2023/02/11 00:57:38;;;;;;;45.60;23.43;;;;;;;4.51;46.58;99408.91;5005316;28;20882;-70
2023/02/11 01:00:05;;;;;;;41.83;23.40;;;;;;;4.41;46.87;99408.41;5004479;28;20201;-69
2023/02/11 01:02:30;;;;;;;46.23;25.07;;;;;;;4.41;47.01;99413.63;4999720;28;20196;-70
2023/02/11 01:04:57;;;;;;;41.00;23.60;;;;;;;4.42;46.75;99416.13;5003247;28;20431;-70
2023/02/11 01:07:22;;;;;;;39.30;23.37;;;;;;;4.32;46.97;99404.41;5004794;28;20208;-69
2023/02/11 01:09:48;;;;;;;47.57;26.00;;;;;;;4.00;47.95;99403.91;4995007;28;20511;-70
2023/02/11 01:12:13;;;;;;;46.70;24.00;;;;;;;4.15;48.20;99402.47;5005606;28;20288;-71
2023/02/11 01:14:39;;;;;;;43.97;24.50;;;;;;;4.25;47.43;99388.22;5001790;28;20196;-70
2023/02/11 01:17:05;;;;;;;49.70;26.50;;;;;;;4.35;47.33;99398.28;4997118;28;20193;-70
2023/02/11 01:19:30;;;;;;;46.37;25.90;;;;;;;4.39;47.31;99395.50;4978986;28;20181;-70
2023/02/11 01:21:55;;;;;;;49.07;25.60;;;;;;;4.31;46.87;99389.75;5001555;28;20589;-70
2023/02/11 01:24:21;;;;;;;46.37;24.97;;;;;;;4.29;47.79;99378.56;5000802;28;20181;-70
2023/02/11 01:26:46;;;;;;;44.10;25.23;;;;;;;4.34;47.33;99371.47;4989327;28;20274;-70
2023/02/11 01:29:12;;;;;;;43.47;23.73;;;;;;;4.24;48.01;99370.13;5000986;28;20260;-68
2023/02/11 01:31:37;;;;;;;41.00;23.13;;;;;;;4.30;46.75;99364.69;5004565;28;20674;-70
2023/02/11 01:34:03;;;;;;;47.10;25.13;;;;;;;4.27;47.37;99360.47;4998059;28;20592;-70
2023/02/11 01:36:28;;;;;;;48.73;24.13;;;;;;;4.17;47.45;99366.94;5000484;28;20176;-70
2023/02/11 01:38:53;;;;;;;41.37;23.73;;;;;;;4.26;47.15;99357.94;5004536;28;20215;-69
2023/02/11 01:41:19;;;;;;;43.03;23.27;;;;;;;4.24;47.45;99362.34;5001049;28;20358;-70
2023/02/11 01:43:48;;;;;;;40.33;23.13;;;;;;;4.21;47.72;99367.66;5007282;28;20315;-69
2023/02/11 01:46:19;;;;;;;49.47;24.40;;;;;;;4.20;47.01;99365.94;5003843;28;20431;-69
2023/02/11 01:48:48;;;;;;;44.37;23.60;;;;;;;4.20;47.76;99360.75;5000974;28;20784;-69
2023/02/11 01:51:26;;;;;;;49.40;22.87;;;;;;;4.26;47.06;99363.13;4985208;28;20427;-69
2023/02/11 01:59:29;;;;;;;40.27;22.63;;;;;;;4.15;47.11;99358.34;4982727;28;20428;-70
2023/02/11 02:01:58;;;;;;;38.60;21.63;;;;;;;4.20;47.09;99348.63;4980758;28;20900;-70
2023/02/11 02:04:30;;;;;;;40.57;22.10;;;;;;;4.14;47.47;99344.53;4983892;28;20428;-69
2023/02/11 02:07:02;;;;;;;38.07;21.80;;;;;;;4.17;47.40;99353.09;4976490;28;20417;-70
2023/02/11 02:09:30;;;;;;;41.23;23.80;;;;;;;4.17;47.49;99353.09;4985091;28;20443;-70
2023/02/11 02:11:56;;;;;;;40.93;21.67;;;;;;;4.14;47.18;99349.72;5002502;28;21383;-69
2023/02/11 02:14:21;;;;;;;39.77;22.37;;;;;;;4.08;47.40;99344.75;4984727;28;20412;-69
2023/02/11 02:16:47;;;;;;;44.27;22.27;;;;;;;4.06;47.49;99341.38;4993386;28;20223;-69
2023/02/11 02:19:39;;;;;;;44.27;23.17;;;;;;;3.95;48.19;99343.53;4994046;28;20850;-70
2023/02/11 02:22:15;;;;;;;44.50;23.40;;;;;;;3.89;47.83;99349.78;5000972;28;20212;-70
2023/02/11 02:25:05;;;;;;;44.00;22.57;;;;;;;3.90;48.73;99345.47;4991822;28;20415;-69
2023/02/11 02:27:49;;;;;;;36.70;21.50;;;;;;;4.08;47.61;99343.94;4966703;28;20420;-70
2023/02/11 02:30:19;;;;;;;44.10;23.00;;;;;;;4.02;48.07;99339.81;5011635;28;20423;-70
2023/02/11 02:33:16;;;;;;;40.20;21.63;;;;;;;4.00;48.32;99326.03;4999458;28;20452;-69
2023/02/11 02:35:57;;;;;;;40.80;23.13;;;;;;;3.85;48.41;99324.84;4979501;28;20459;-69
2023/02/11 02:38:29;;;;;;;47.20;22.57;;;;;;;3.83;48.12;99321.50;5001214;28;20424;-69
2023/02/11 02:40:59;;;;;;;40.60;22.80;;;;;;;3.84;48.38;99318.00;4987447;28;20889;-69
2023/02/11 02:43:26;;;;;;;42.00;21.77;;;;;;;3.88;48.59;99321.31;4985685;28;20494;-69
2023/02/11 02:45:51;;;;;;;41.83;23.63;;;;;;;3.93;47.82;99320.25;4983701;28;20463;-70
2023/02/11 02:48:31;;;;;;;41.33;21.77;;;;;;;3.89;48.39;99318.66;5001316;28;20499;-70
2023/02/11 02:51:34;;;;;;;41.13;22.20;;;;;;;4.00;48.41;99320.84;4982155;28;20188;-70
2023/02/11 02:54:32;;;;;;;40.73;23.60;;;;;;;3.89;48.19;99313.47;4943945;28;20593;-69
2023/02/11 02:57:29;;;;;;;36.07;21.20;;;;;;;3.90;48.44;99315.16;4929160;29;20414;-69
2023/02/11 03:00:14;;;;;;;39.90;22.30;;;;;;;3.91;48.43;99318.59;4990961;28;20536;-69
2023/02/11 03:02:53;;;;;;;37.67;21.67;;;;;;;3.98;48.52;99307.09;4976315;28;20546;-69
2023/02/11 03:05:21;;;;;;;35.27;20.50;;;;;;;4.04;48.17;99312.03;5000723;28;20499;-70
2023/02/11 03:07:57;;;;;;;33.83;21.07;;;;;;;4.05;47.45;99302.50;5001834;28;20481;-70
2023/02/11 03:10:29;;;;;;;36.83;20.80;;;;;;;4.02;48.07;99298.28;4979281;28;20794;-70
2023/02/11 03:12:56;;;;;;;34.40;19.83;;;;;;;3.99;48.45;99301.00;4997028;28;20471;-69
2023/02/11 03:15:22;;;;;;;36.00;20.00;;;;;;;4.03;47.81;99294.78;5005299;28;20769;-70
2023/02/11 03:17:50;;;;;;;36.70;21.10;;;;;;;4.06;48.21;99294.66;4997673;28;20440;-70
2023/02/11 03:20:18;;;;;;;34.60;19.77;;;;;;;4.06;47.47;99296.41;4978874;28;20464;-69
2023/02/11 03:22:52;;;;;;;40.27;21.57;;;;;;;3.93;48.30;99298.63;4970656;28;20451;-70
2023/02/11 03:25:18;;;;;;;42.70;21.33;;;;;;;3.95;48.44;99289.03;4984069;28;20428;-69
2023/02/11 03:27:56;;;;;;;44.40;23.00;;;;;;;3.87;48.78;99297.13;4980921;28;20482;-69
2023/02/11 03:30:33;;;;;;;38.87;20.83;;;;;;;3.99;48.72;99291.44;5005179;28;20937;-71
2023/02/11 03:33:08;;;;;;;42.10;22.20;;;;;;;3.66;48.71;99293.56;4993925;28;20443;-70
2023/02/11 03:35:46;;;;;;;36.77;22.43;;;;;;;3.67;49.31;99288.34;4979398;28;20518;-70
2023/02/11 03:38:16;;;;;;;39.27;22.10;;;;;;;3.72;49.24;99288.19;4981942;28;20511;-71
2023/02/11 03:40:44;;;;;;;37.83;22.23;;;;;;;3.67;49.03;99279.72;5007214;28;20451;-69
2023/02/11 03:43:17;;;;;;;39.77;21.80;;;;;;;3.83;49.20;99290.38;5000763;28;20440;-70
2023/02/11 03:45:43;;;;;;;40.13;22.33;;;;;;;3.92;49.01;99291.75;4983413;28;20427;-69
2023/02/11 03:48:15;;;;;;;38.37;21.73;;;;;;;4.02;47.90;99295.69;4983433;28;20456;-69
2023/02/11 03:50:41;;;;;;;35.77;21.13;;;;;;;3.84;48.51;99298.09;4982520;28;21014;-70
2023/02/11 03:53:07;;;;;;;38.43;21.53;;;;;;;3.79;49.03;99296.56;4986101;28;20539;-69
2023/02/11 03:55:36;;;;;;;39.83;22.70;;;;;;;3.88;49.00;99303.16;4969156;28;20211;-70
2023/02/11 03:58:01;;;;;;;34.20;20.67;;;;;;;3.83;48.71;99303.34;4988000;28;20461;-70
2023/02/11 04:00:38;;;;;;;33.80;20.03;;;;;;;3.82;48.97;99299.88;5002586;28;20466;-70
2023/02/11 04:03:04;;;;;;;39.27;21.70;;;;;;;3.75;48.93;99289.78;4996346;28;20208;-70
2023/02/11 04:05:29;;;;;;;37.50;21.53;;;;;;;3.47;50.04;99278.72;4997474;28;20428;-70
2023/02/11 04:07:55;;;;;;;39.27;22.43;;;;;;;3.48;49.79;99277.81;4996894;28;20416;-71
2023/02/11 04:10:20;;;;;;;43.30;22.53;;;;;;;3.60;50.13;99286.03;5005518;28;20197;-70
2023/02/11 04:12:46;;;;;;;42.70;23.03;;;;;;;3.75;49.79;99292.38;5005635;28;20200;-70
2023/02/11 04:15:11;;;;;;;39.33;21.77;;;;;;;3.86;49.19;99302.38;5007983;28;20582;-70
2023/02/11 04:17:38;;;;;;;35.43;20.70;;;;;;;3.86;49.48;99303.19;5001893;28;20213;-69
2023/02/11 04:20:04;;;;;;;37.50;20.77;;;;;;;3.87;48.89;99304.91;4998326;28;20610;-69
2023/02/11 04:22:30;;;;;;;38.63;22.10;;;;;;;3.89;49.23;99307.44;4988296;28;20443;-70
2023/02/11 04:24:55;;;;;;;40.20;21.90;;;;;;;3.88;49.08;99316.97;4997214;28;20267;-70
2023/02/11 04:27:21;;;;;;;35.60;21.23;;;;;;;3.69;50.36;99316.81;5003923;28;20455;-71
2023/02/11 04:29:47;;;;;;;42.07;22.23;;;;;;;3.59;50.33;99325.84;5004226;28;20216;-69
2023/02/11 04:32:12;;;;;;;42.00;23.83;;;;;;;3.74;50.52;99325.28;5005571;28;20204;-70
2023/02/11 04:34:38;;;;;;;39.53;22.33;;;;;;;3.84;49.83;99316.25;4991498;28;20239;-71
2023/02/11 04:37:03;;;;;;;37.80;23.23;;;;;;;3.99;49.61;99319.16;5007406;28;20188;-70
2023/02/11 04:39:29;;;;;;;38.20;20.77;;;;;;;4.02;49.29;99318.19;5003674;28;20188;-71
2023/02/11 04:41:54;;;;;;;38.93;21.90;;;;;;;4.11;49.05;99308.31;5000988;28;20290;-71
2023/02/11 04:44:20;;;;;;;47.47;21.30;;;;;;;4.19;48.90;99309.75;4983196;28;20189;-70
2023/02/11 04:46:45;;;;;;;39.43;22.47;;;;;;;4.10;49.31;99306.63;5002433;28;20230;-69
2023/02/11 04:49:12;;;;;;;39.73;22.33;;;;;;;4.05;49.15;99303.34;5005286;28;20268;-70
2023/02/11 04:51:37;;;;;;;40.53;22.20;;;;;;;4.19;49.36;99301.94;4978820;28;20268;-70
2023/02/11 04:54:03;;;;;;;39.13;20.93;;;;;;;4.21;48.41;99302.75;5006761;28;20561;-70
2023/02/11 04:56:28;;;;;;;35.30;22.13;;;;;;;4.17;49.19;99302.03;5002871;28;20193;-70
2023/02/11 04:58:54;;;;;;;41.40;21.60;;;;;;;4.18;49.61;99297.66;5007639;28;20184;-69
2023/02/11 05:01:19;;;;;;;39.73;22.00;;;;;;;4.25;49.74;99304.31;4997828;28;20308;-69
2023/02/11 05:03:45;;;;;;;39.27;20.97;;;;;;;4.27;48.88;99308.53;4994175;28;20542;-69
2023/02/11 05:06:10;;;;;;;36.17;21.27;;;;;;;4.20;49.07;99296.72;5005302;28;20196;-69
2023/02/11 05:08:36;;;;;;;38.00;22.73;;;;;;;4.23;49.52;99296.56;5001712;28;20185;-70
2023/02/11 05:11:01;;;;;;;41.97;23.53;;;;;;;4.33;48.81;99286.69;4983814;28;20193;-70
2023/02/11 05:13:27;;;;;;;41.80;21.73;;;;;;;4.34;48.67;99283.19;5001350;28;20283;-70
2023/02/11 05:15:54;;;;;;;41.90;22.20;;;;;;;4.39;48.94;99291.63;5000764;28;20190;-70
2023/02/11 05:18:20;;;;;;;38.40;23.27;;;;;;;4.39;49.16;99289.03;4994222;28;20490;-69
2023/02/11 05:20:45;;;;;;;43.73;22.87;;;;;;;4.54;48.79;99286.69;4984411;28;20486;-70
2023/02/11 05:23:11;;;;;;;40.33;21.27;;;;;;;4.24;48.85;99272.31;4998099;28;20237;-70
2023/02/11 05:25:37;;;;;;;34.70;20.80;;;;;;;4.13;49.06;99267.56;4983943;28;20196;-70
2023/02/11 05:28:03;;;;;;;39.87;22.80;;;;;;;4.14;48.97;99251.09;4998745;28;20181;-71
2023/02/11 05:30:28;;;;;;;38.47;21.63;;;;;;;4.29;48.66;99254.81;5001503;28;20714;-70
2023/02/11 05:32:54;;;;;;;37.23;21.10;;;;;;;4.06;49.18;99239.31;4999704;28;20539;-70
2023/02/11 05:35:20;;;;;;;33.40;20.53;;;;;;;4.17;48.75;99236.28;5006819;28;20189;-68
2023/02/11 05:37:45;;;;;;;36.67;22.47;;;;;;;4.15;48.74;99232.00;5002484;28;20231;-70
2023/02/11 05:40:11;;;;;;;37.73;21.50;;;;;;;4.23;49.72;99243.81;4980306;28;20350;-70
2023/02/11 05:42:36;;;;;;;36.33;20.93;;;;;;;4.35;49.02;99247.69;5000268;28;20266;-70
2023/02/11 05:45:02;;;;;;;39.10;21.27;;;;;;;4.34;49.57;99249.41;4982702;28;20661;-70
2023/02/11 05:47:27;;;;;;;38.17;22.20;;;;;;;4.30;49.93;99238.31;5006299;28;20176;-70
2023/02/11 05:49:53;;;;;;;39.33;22.60;;;;;;;4.12;49.17;99237.31;4998357;28;20184;-69
2023/02/11 05:52:22;;;;;;;38.93;22.50;;;;;;;4.23;49.64;99243.81;5006140;28;20204;-70
2023/02/11 05:54:48;;;;;;;36.27;21.20;;;;;;;4.28;49.59;99242.72;5001981;28;20181;-70
2023/02/11 05:57:13;;;;;;;37.37;21.80;;;;;;;4.19;50.10;99239.66;4988085;28;20430;-70
2023/02/11 05:59:39;;;;;;;39.03;21.50;;;;;;;4.12;50.03;99242.50;4994231;28;20192;-70
2023/02/11 06:02:06;;;;;;;34.37;21.83;;;;;;;4.15;50.16;99232.00;4995115;28;20223;-68
2023/02/11 06:04:33;;;;;;;33.03;20.13;;;;;;;4.11;50.45;99245.16;4986362;28;20739;-71
2023/02/11 06:06:58;;;;;;;36.53;21.53;;;;;;;4.20;50.77;99241.34;4998543;28;20427;-71
2023/02/11 06:09:24;;;;;;;40.07;22.80;;;;;;;4.21;50.21;99243.03;4991426;28;20431;-70
2023/02/11 06:11:49;;;;;;;37.00;21.73;;;;;;;4.20;50.80;99244.81;4949795;28;20173;-70
2023/02/11 06:14:14;;;;;;;36.20;21.50;;;;;;;4.27;50.39;99246.22;4993809;28;20213;-70
2023/02/11 06:16:40;;;;;;;43.03;20.80;;;;;;;4.42;49.69;99254.31;5003836;28;20192;-71
2023/02/11 06:19:05;;;;;;;35.30;21.70;;;;;;;4.52;49.96;99275.56;4989156;28;20192;-70
2023/02/11 06:21:31;;;;;;;34.40;20.33;;;;;;;4.64;49.80;99269.00;5000889;28;20728;-70
2023/02/11 06:23:56;;;;;;;32.00;20.70;;;;;;;4.70;49.41;99271.34;4996802;28;20604;-69
2023/02/11 06:26:22;;;;;;;37.23;21.17;;;;;;;4.71;48.38;99266.06;4993637;28;20181;-69
2023/02/11 06:28:48;;;;;;;35.90;21.57;;;;;;;4.53;49.66;99257.31;5001212;28;20591;-70
2023/02/11 06:31:14;;;;;;;36.37;21.70;;;;;;;4.45;49.93;99265.41;4994152;28;20512;-70
2023/02/11 06:33:39;;;;;;;39.10;21.83;;;;;;;4.56;49.69;99269.31;5001666;28;20687;-70
2023/02/11 06:36:13;;;;;;;39.20;22.27;;;;;;;4.59;50.02;99261.41;5003980;28;20427;-70
2023/02/11 06:38:38;;;;;;;39.33;20.60;;;;;;;4.62;49.53;99250.88;4988724;28;20172;-70
2023/02/11 06:41:03;;;;;;;35.40;21.70;;;;;;;4.60;49.59;99263.09;4998943;28;20470;-69
2023/02/11 06:43:29;;;;;;;33.67;21.00;;;;;;;4.55;49.85;99254.63;4990898;28;20891;-70
2023/02/11 06:45:55;;;;;;;39.00;21.50;;;;;;;4.50;50.24;99261.78;5000792;28;20594;-69
2023/02/11 06:48:22;;;;;;;37.60;22.60;;;;;;;4.46;49.92;99256.72;5002914;28;20180;-69
2023/02/11 06:50:47;;;;;;;35.27;20.50;;;;;;;4.45;50.29;99270.59;5001246;28;20176;-70
2023/02/11 06:53:12;;;;;;;31.97;21.20;;;;;;;4.36;50.98;99265.78;4973188;28;20547;-71
2023/02/11 06:55:38;;;;;;;34.17;21.50;;;;;;;4.49;50.81;99280.88;5002738;28;20230;-71
2023/02/11 06:58:03;;;;;;;33.60;21.70;;;;;;;4.63;50.55;99277.69;5006133;28;20211;-70
2023/02/11 07:00:29;;;;;;;35.53;22.33;;;;;;;4.67;49.77;99276.66;5001823;28;20197;-70
2023/02/11 07:02:54;;;;;;;34.53;22.43;;;;;;;4.71;49.76;99276.47;5000689;28;20339;-70
2023/02/11 07:05:20;;;;;;;34.13;20.90;;;;;;;4.73;49.65;99286.78;4999397;28;20185;-70
2023/02/11 07:07:45;;;;;;;38.00;21.47;;;;;;;4.68;49.44;99283.56;4973795;28;20258;-69
2023/02/11 07:10:11;;;;;;;36.27;21.53;;;;;;;4.66;49.92;99283.63;5000404;28;20177;-70
2023/02/11 07:12:37;;;;;;;36.73;22.13;;;;;;;4.68;50.39;99286.16;5003237;28;20231;-71
2023/02/11 07:15:02;;;;;;;39.40;23.03;;;;;;;4.71;50.37;99286.84;4988356;28;20263;-70
2023/02/11 07:17:28;;;;;;;34.20;21.67;;;;;;;4.82;49.80;99289.00;4999456;28;20200;-71
2023/02/11 07:19:53;;;;;;;36.67;22.60;;;;;;;4.90;50.37;99280.91;4991005;28;20851;-71
2023/02/11 07:22:19;;;;;;;37.33;21.00;;;;;;;5.06;49.81;99276.69;4998586;28;20917;-71
2023/02/11 07:24:44;;;;;;;36.50;21.27;;;;;;;5.12;49.67;99274.75;4984616;28;20180;-71
2023/02/11 07:27:10;;;;;;;31.70;20.47;;;;;;;5.14;50.15;99278.16;5002477;28;20235;-71
2023/02/11 07:29:35;;;;;;;30.80;19.07;;;;;;;5.14;49.54;99281.56;4996450;28;20215;-70
2023/02/11 07:32:00;;;;;;;31.60;19.60;;;;;;;5.20;49.58;99270.06;4999756;28;20252;-70
2023/02/11 07:34:26;;;;;;;32.50;20.30;;;;;;;5.20;49.42;99270.06;5000573;28;20840;-70
2023/02/11 07:36:51;;;;;;;38.50;20.90;;;;;;;5.21;49.92;99271.75;5008508;28;20192;-70
2023/02/11 07:39:18;;;;;;;30.93;19.80;;;;;;;5.26;49.88;99282.81;5005858;28;20191;-71
2023/02/11 07:41:46;;;;;;;34.13;21.47;;;;;;;5.25;49.95;99291.50;5004177;28;20557;-69
2023/02/11 07:44:12;;;;;;;33.30;19.50;;;;;;;5.33;49.60;99292.00;5006285;28;20423;-70
2023/02/11 07:46:41;;;;;;;30.63;20.10;;;;;;;5.43;49.66;99294.19;4995990;28;20987;-71
2023/02/11 07:49:07;;;;;;;33.77;19.33;;;;;;;5.51;49.37;99286.91;4997695;28;20333;-69
2023/02/11 07:51:32;;;;;;;35.83;19.60;;;;;;;5.56;49.45;99287.53;4993534;28;20531;-71
2023/02/11 07:53:58;;;;;;;31.80;20.60;;;;;;;5.60;49.48;99281.28;4992877;28;20231;-71
2023/02/11 07:56:24;;;;;;;34.80;20.37;;;;;;;5.60;49.40;99270.88;4992441;28;20189;-71
2023/02/11 07:58:50;;;;;;;31.38;20.38;;;;;;;5.74;49.63;99279.81;4992494;28;21153;-71
2023/02/11 08:01:24;;;;;;;30.17;19.07;;;;;;;5.76;49.26;99264.97;4992276;28;20572;-70
2023/02/11 08:03:50;;;;;;;32.20;21.63;;;;;;;5.79;49.13;99275.25;5000667;28;20208;-71
2023/02/11 08:06:19;;;;;;;36.20;19.20;;;;;;;5.96;50.63;99267.47;4994345;28;20431;-68
2023/02/11 08:08:45;;;;;;;29.33;19.90;;;;;;;6.14;48.45;99263.19;4998345;28;20474;-70
2023/02/11 08:11:14;;;;;;;35.00;19.73;;;;;;;6.02;48.74;99255.13;4978492;28;20416;-70
2023/02/11 08:13:40;;;;;;;32.73;18.40;;;;;;;6.16;48.48;99260.50;4981734;28;20462;-69
2023/02/11 08:16:06;;;;;;;28.90;18.03;;;;;;;6.29;48.27;99260.75;5004494;28;20460;-70
2023/02/11 08:18:32;;;;;;;29.63;19.80;;;;;;;6.32;48.55;99257.16;4994018;28;20247;-69
2023/02/11 08:21:16;;;;;;;29.20;18.77;;;;;;;6.24;48.91;99253.16;4994823;28;20459;-69
2023/02/11 08:23:42;;;;;;;31.37;18.67;;;;;;;6.27;49.11;99250.41;4993811;28;20556;-70
2023/02/11 08:26:15;;;;;;;30.10;19.53;;;;;;;6.46;48.48;99259.91;5002831;28;21046;-69
2023/02/11 08:28:41;;;;;;;38.67;23.50;;;;;;;6.61;48.74;99261.75;5003515;28;20477;-71
2023/02/11 08:31:09;;;;;;;47.50;26.57;;;;;;;6.73;48.81;99254.25;4999827;28;20565;-74
2023/02/11 08:33:35;;;;;;;36.23;23.13;;;;;;;6.86;48.47;99264.91;5005185;28;20526;-69
2023/02/11 08:36:02;;;;;;;39.37;22.10;;;;;;;6.98;48.19;99268.63;4990134;28;20512;-71
2023/02/11 08:38:27;;;;;;;31.53;20.10;;;;;;;7.07;48.34;99270.75;4987337;28;20251;-69
2023/02/11 08:40:53;;;;;;;38.17;22.20;;;;;;;7.04;48.54;99276.97;5004879;28;20452;-71
2023/02/11 08:43:18;;;;;;;53.70;26.23;;;;;;;7.03;48.45;99271.84;5004547;28;20215;-69
2023/02/11 08:45:44;;;;;;;37.77;23.90;;;;;;;7.08;48.39;99275.06;5003812;28;20215;-69
2023/02/11 08:48:09;;;;;;;37.23;21.10;;;;;;;7.27;48.27;99267.13;4999667;28;20189;-70
2023/02/11 08:50:37;;;;;;;29.07;18.47;;;;;;;7.35;47.74;99264.97;4998842;28;20707;-69
2023/02/11 08:53:03;;;;;;;28.53;17.30;;;;;;;7.71;46.63;99262.22;4993000;28;20235;-69
2023/02/11 08:55:29;;;;;;;29.60;18.48;;;;;;;8.00;46.10;99266.66;5004245;28;20411;-70
2023/02/11 08:57:54;;;;;;;25.20;17.80;;;;;;;8.26;45.58;99260.91;5002718;28;20185;-70
2023/02/11 09:00:20;;;;;;;29.10;16.97;;;;;;;8.69;45.29;99258.47;4999074;28;20209;-72
2023/02/11 09:02:45;;;;;;;24.93;15.77;;;;;;;9.14;44.38;99244.50;5003364;28;20842;-71
2023/02/11 09:05:11;;;;;;;29.13;15.10;;;;;;;9.64;43.45;99253.63;5004354;28;20177;-71
2023/02/11 09:07:36;;;;;;;22.00;14.20;;;;;;;10.08;41.76;99246.47;5005757;28;20188;-70
2023/02/11 09:10:02;;;;;;;20.00;13.10;;;;;;;10.42;41.06;99248.72;4998518;28;20181;-70
2023/02/11 09:12:27;;;;;;;16.90;12.60;;;;;;;10.88;40.09;99253.50;5001724;28;20200;-70
2023/02/11 09:14:53;;;;;;;20.40;14.07;;;;;;;11.29;39.32;99259.47;5004578;28;20593;-70
2023/02/11 09:17:18;;;;;;;29.43;14.73;;;;;;;11.53;38.64;99258.69;5001631;28;20197;-71
2023/02/11 09:19:44;;;;;;;20.67;13.90;;;;;;;11.90;38.28;99249.97;4995609;28;20243;-69
2023/02/11 09:22:09;;;;;;;24.33;14.87;;;;;;;12.27;37.18;99242.06;4997681;28;20209;-69
2023/02/11 09:24:35;;;;;;;20.40;15.03;;;;;;;12.38;36.49;99239.47;4996345;28;20184;-70
2023/02/11 09:27:00;;;;;;;24.53;15.30;;;;;;;12.46;36.70;99240.72;5005406;28;20184;-69
2023/02/11 09:29:26;;;;;;;18.77;13.93;;;;;;;12.64;36.49;99236.69;4997830;28;20197;-70
2023/02/11 09:31:51;;;;;;;20.87;14.00;;;;;;;12.96;36.15;99237.81;4971924;28;20678;-70
2023/02/11 09:34:17;;;;;;;18.98;14.20;;;;;;;13.07;35.40;99229.91;4989027;28;20860;-69
2023/02/11 09:36:42;;;;;;;13.57;10.70;;;;;;;13.13;34.83;99229.47;4979096;28;20215;-71
2023/02/11 09:39:11;;;;;;;17.57;11.73;;;;;;;13.26;34.51;99229.34;4975623;28;20172;-70
2023/02/11 09:41:55;;;;;;;19.07;13.90;;;;;;;13.36;34.92;99227.66;5000904;28;20693;-71
2023/02/11 09:44:24;;;;;;;20.30;15.30;;;;;;;13.51;35.06;99225.66;4963461;28;20413;-70
2023/02/11 09:46:55;;;;;;;17.97;14.03;;;;;;;13.65;34.44;99227.16;4993662;28;20788;-70
2023/02/11 09:49:26;;;;;;;20.83;14.17;;;;;;;13.42;33.82;99234.25;4977902;28;20424;-71
2023/02/11 09:52:04;;;;;;;23.53;15.60;;;;;;;13.50;34.24;99229.25;4995091;28;20792;-70
2023/02/11 09:54:35;;;;;;;21.63;14.37;;;;;;;13.63;33.77;99237.00;4976403;28;20423;-71
2023/02/11 09:57:01;;;;;;;19.80;14.90;;;;;;;13.81;34.23;99239.13;4982201;28;20420;-71
2023/02/11 09:59:26;;;;;;;20.87;15.50;;;;;;;14.06;33.55;99235.31;4986108;28;20434;-70
2023/02/11 10:02:03;;;;;;;26.30;15.57;;;;;;;13.67;33.44;99235.78;4991796;28;20201;-71
2023/02/11 10:04:40;;;;;;;22.07;16.07;;;;;;;13.85;33.69;99244.97;4983487;28;20226;-69
2023/02/11 10:07:24;;;;;;;24.43;16.73;;;;;;;13.92;33.79;99241.72;4978939;28;20424;-71
2023/02/11 10:10:25;;;;;;;24.00;16.17;;;;;;;13.86;33.51;99249.28;4980651;28;20419;-71
2023/02/11 10:12:50;;;;;;;21.67;14.60;;;;;;;13.58;33.85;99254.97;4974306;28;20431;-70
2023/02/11 10:15:58;;;;;;;27.17;15.37;;;;;;;13.54;33.85;99255.34;4999728;28;20550;-70
2023/02/11 10:18:32;;;;;;;27.20;16.07;;;;;;;13.59;34.50;99261.94;4958979;28;20221;-71
2023/02/11 10:21:29;;;;;;;20.43;14.37;;;;;;;14.07;32.90;99246.72;4971418;28;20451;-71
2023/02/11 10:23:59;;;;;;;17.03;12.87;;;;;;;14.40;33.07;99244.91;4977868;28;20811;-72
2023/02/11 10:26:27;;;;;;;20.83;13.80;;;;;;;14.76;32.11;99244.63;4981951;28;20424;-72
2023/02/11 10:28:54;;;;;;;17.40;13.80;;;;;;;14.99;32.02;99242.69;4980325;28;20416;-71
2023/02/11 10:31:24;;;;;;;16.97;12.20;;;;;;;15.40;31.79;99242.75;5002412;28;20479;-71
2023/02/11 10:34:00;;;;;;;17.77;13.30;;;;;;;15.48;31.13;99251.69;5002452;28;20446;-70
2023/02/11 10:36:29;;;;;;;19.97;13.17;;;;;;;15.95;31.12;99248.47;4986321;28;20455;-73
2023/02/11 10:38:54;;;;;;;22.10;13.93;;;;;;;16.40;30.45;99246.28;4985046;28;20855;-72
2023/02/11 10:41:25;;;;;;;16.20;12.03;;;;;;;16.61;29.83;99248.75;4984405;28;20562;-72
2023/02/11 10:43:50;;;;;;;14.57;10.70;;;;;;;16.40;30.11;99246.28;4976874;28;20274;-72
2023/02/11 10:46:21;;;;;;;14.67;11.47;;;;;;;16.57;29.53;99242.91;4973251;28;20942;-70
2023/02/11 10:48:51;;;;;;;15.87;9.37;;;;;;;16.73;29.79;99234.41;4977804;28;20230;-72
2023/02/11 10:51:25;;;;;;;10.97;8.47;;;;;;;17.14;29.26;99222.72;4956197;28;20991;-71
2023/02/11 10:54:02;;;;;;;12.80;8.20;;;;;;;17.20;28.34;99222.16;4995563;28;20470;-71
2023/02/11 10:56:31;;;;;;;9.67;6.93;;;;;;;17.07;28.40;99216.34;4989107;28;20423;-70
2023/02/11 10:58:59;;;;;;;10.70;6.77;;;;;;;17.55;28.28;99203.84;5000157;28;20562;-72
2023/02/11 11:01:44;;;;;;;8.43;6.30;;;;;;;17.88;28.17;99204.19;4977772;28;20525;-72
2023/02/11 11:04:39;;;;;;;8.43;5.87;;;;;;;18.16;27.62;99197.00;4989790;28;20491;-72
2023/02/11 11:07:20;;;;;;;7.80;5.93;;;;;;;17.89;27.07;99189.94;4967848;28;20423;-72
2023/02/11 11:09:48;;;;;;;12.80;5.97;;;;;;;18.13;27.31;99192.03;4992109;28;20458;-72
2023/02/11 11:12:25;;;;;;;7.90;5.80;;;;;;;18.33;27.04;99194.50;5000323;28;20435;-71
2023/02/11 11:15:10;;;;;;;9.37;5.70;;;;;;;18.39;26.80;99191.25;5005979;28;20419;-71
2023/02/11 11:17:36;;;;;;;8.90;6.00;;;;;;;17.87;27.49;99190.09;4994665;28;20966;-69
2023/02/11 11:20:27;;;;;;;9.33;6.07;;;;;;;18.09;27.19;99188.00;5000949;28;20420;-71
2023/02/11 11:23:17;;;;;;;6.50;5.33;;;;;;;18.24;27.46;99183.84;4993184;28;20448;-71
2023/02/11 11:25:45;;;;;;;6.90;4.83;;;;;;;18.50;27.05;99193.66;4977964;28;20448;-73
2023/02/11 11:28:25;;;;;;;7.97;5.33;;;;;;;18.53;26.81;99187.19;4986419;28;20427;-75
2023/02/11 11:30:51;;;;;;;6.57;5.03;;;;;;;18.93;26.69;99187.59;5003540;28;20415;-71
2023/02/11 11:33:22;;;;;;;7.80;5.63;;;;;;;18.86;26.08;99193.56;4990727;28;21004;-71
2023/02/11 11:36:02;;;;;;;7.30;5.47;;;;;;;19.06;26.01;99190.69;4983762;28;20781;-70
2023/02/11 11:38:29;;;;;;;7.80;6.30;;;;;;;19.21;26.01;99195.41;4985778;28;20443;-71